Time;durP1;ratioP1;P1;durP2;ratioP2;P2;SDS_P1;SDS_P2;PMS_P1;PMS_P2;Temp;Humidity;BMP_temperature;BMP_pressure;BME280_temperature;BME280_humidity;BME280_pressure;Samples;Min_cycle;Max_cycle;Signal;HPM_P1;HPM_P2
2021/08/07 01:48:57;;;;;;;3.95;1.45;;;15.00;99.90;;;;;;4968356;29;20134;-77
2021/08/07 03:29:26;;;;;;;2.33;1.50;;;14.70;99.90;;;;;;5965463;23;20609;-79
2021/08/07 03:31:51;;;;;;;3.35;1.88;;;14.70;99.90;;;;;;5035480;28;20045;-78
2021/08/07 03:34:17;;;;;;;;;;;14.70;99.90;;;;;;5037023;28;20038;-78
2021/08/07 03:36:43;;;;;;;4.43;1.38;;;14.60;99.90;;;;;;5033406;28;19924;-79
2021/08/07 03:39:09;;;;;;;3.35;1.38;;;14.70;99.90;;;;;;5033898;28;20073;-78
2021/08/07 03:41:34;;;;;;;;;;;14.70;99.90;;;;;;5019791;28;20017;-79
2021/08/07 03:44:00;;;;;;;3.80;1.40;;;14.70;99.90;;;;;;5035102;28;19906;-77
2021/08/07 03:46:26;;;;;;;4.82;1.70;;;14.70;99.90;;;;;;5034115;28;20577;-79
2021/08/07 03:48:52;;;;;;;2.53;1.40;;;14.70;99.90;;;;;;5017726;28;20076;-78
2021/08/07 03:51:17;;;;;;;;;;;14.70;99.90;;;;;;5017037;28;20026;-78
2021/08/07 03:53:43;;;;;;;10.98;2.22;;;14.70;99.90;;;;;;5018473;28;19921;-78
2021/08/07 03:56:09;;;;;;;;;;;14.70;99.90;;;;;;5004110;28;20049;-78
2021/08/07 03:58:34;;;;;;;3.83;1.60;;;14.60;99.90;;;;;;5001731;28;20402;-78
2021/08/07 04:01:00;;;;;;;;;;;14.70;99.90;;;;;;4998250;28;20046;-78
2021/08/07 04:03:25;;;;;;;5.00;2.00;;;14.70;99.90;;;;;;5011301;28;20033;-78
2021/08/07 04:05:51;;;;;;;1.88;1.35;;;14.70;99.90;;;;;;5007401;28;20424;-78
2021/08/07 04:08:16;;;;;;;;;;;14.70;99.90;;;;;;4992497;28;20034;-78
2021/08/07 04:10:42;;;;;;;1.70;1.30;;;14.70;99.90;;;;;;4992020;28;19922;-79
2021/08/07 04:13:08;;;;;;;;;;;14.80;99.90;;;;;;4985070;28;20035;-79
2021/08/07 04:15:34;;;;;;;2.03;1.27;;;14.90;99.90;;;;;;4992055;28;20030;-78
2021/08/07 04:17:59;;;;;;;;;;;15.00;99.90;;;;;;4977606;28;20043;-78
2021/08/07 04:20:25;;;;;;;5.20;1.50;;;15.20;99.90;;;;;;4990754;28;19918;-78
2021/08/07 04:22:50;;;;;;;5.40;1.55;;;15.40;99.90;;;;;;4990254;28;20046;-77
2021/08/07 04:25:16;;;;;;;7.00;1.40;;;15.50;99.90;;;;;;4973679;28;20042;-78
2021/08/07 04:27:42;;;;;;;2.28;1.50;;;15.60;99.90;;;;;;4970670;28;20035;-78
2021/08/07 04:30:09;;;;;;;2.17;1.42;;;15.60;99.90;;;;;;4971282;28;20053;-78
2021/08/07 04:32:35;;;;;;;6.63;1.30;;;15.70;99.90;;;;;;4998691;28;20062;-78
2021/08/07 04:35:01;;;;;;;7.43;1.60;;;15.80;99.90;;;;;;4986893;28;20057;-77
2021/08/07 04:37:27;;;;;;;5.32;1.92;;;15.90;99.90;;;;;;4972063;28;20043;-75
2021/08/07 04:39:52;;;;;;;8.98;2.45;;;16.00;99.90;;;;;;4973624;28;20049;-77
2021/08/07 04:42:18;;;;;;;7.35;1.63;;;16.00;99.90;;;;;;4987099;28;20062;-77
2021/08/07 04:44:44;;;;;;;;;;;16.00;99.90;;;;;;4985610;28;20042;-78
2021/08/07 04:47:09;;;;;;;2.53;1.80;;;16.10;99.90;;;;;;4966899;28;19945;-77
2021/08/07 04:49:36;;;;;;;5.97;1.63;;;16.10;99.90;;;;;;4975377;28;20050;-78
2021/08/07 04:52:02;;;;;;;7.35;1.85;;;16.20;99.90;;;;;;4971047;28;20030;-79
2021/08/07 04:54:28;;;;;;;2.10;1.67;;;16.40;99.90;;;;;;4978123;28;20034;-78
2021/08/07 04:56:53;;;;;;;3.92;1.88;;;16.50;99.90;;;;;;4993366;28;20018;-78
2021/08/07 04:59:19;;;;;;;3.42;1.30;;;16.60;99.90;;;;;;4975727;28;20066;-78
2021/08/07 05:01:45;;;;;;;2.22;1.30;;;16.80;99.90;;;;;;4988180;28;20027;-78
2021/08/07 05:04:11;;;;;;;4.40;1.00;;;17.00;99.90;;;;;;4972121;28;20066;-82
2021/08/07 05:06:36;;;;;;;1.67;1.20;;;17.10;99.90;;;;;;4952835;28;20069;-79
2021/08/07 05:09:03;;;;;;;2.40;1.30;;;17.30;99.90;;;;;;4968798;28;20045;-79
2021/08/07 05:11:29;;;;;;;1.92;1.23;;;17.40;99.90;;;;;;4968496;28;20057;-85
2021/08/07 05:13:55;;;;;;;1.58;0.90;;;17.50;99.90;;;;;;4968681;28;20591;-83
2021/08/07 05:16:21;;;;;;;5.13;1.15;;;17.70;99.90;;;;;;4952278;28;20121;-79
2021/08/07 05:18:46;;;;;;;9.43;1.48;;;17.90;99.80;;;;;;4969073;28;20045;-82
2021/08/07 05:21:12;;;;;;;1.50;1.08;;;18.10;99.40;;;;;;4950917;28;20019;-86
2021/08/07 05:23:37;;;;;;;4.25;1.13;;;18.20;99.00;;;;;;4968007;28;20512;-86
2021/08/07 05:26:03;;;;;;;3.78;0.90;;;18.60;98.10;;;;;;4950840;28;20102;-87
2021/08/07 05:28:29;;;;;;;2.08;0.90;;;19.00;96.50;;;;;;4968229;28;20031;-85
2021/08/07 05:30:54;;;;;;;4.53;0.98;;;19.40;95.30;;;;;;4968083;28;20093;-84
2021/08/07 05:33:20;;;;;;;2.50;0.98;;;19.60;94.90;;;;;;4950443;28;20027;-86
2021/08/07 05:35:46;;;;;;;1.75;1.15;;;19.70;94.60;;;;;;4950837;28;20145;-86
2021/08/07 05:38:11;;;;;;;4.28;1.02;;;19.80;94.20;;;;;;4967696;28;20089;-86
2021/08/07 05:40:37;;;;;;;2.13;1.50;;;19.80;93.80;;;;;;4967020;28;20033;-86
2021/08/07 05:43:03;;;;;;;4.55;0.95;;;19.80;93.90;;;;;;4967643;28;20590;-86
2021/08/07 05:45:28;;;;;;;1.45;0.80;;;19.90;94.00;;;;;;4950850;28;20034;-87
2021/08/07 05:47:54;;;;;;;2.35;0.82;;;20.00;93.50;;;;;;4950208;28;20142;-86
2021/08/07 05:50:19;;;;;;;4.57;0.93;;;20.40;92.60;;;;;;4950352;28;20143;-86
2021/08/07 05:52:45;;;;;;;3.05;0.75;;;20.80;91.90;;;;;;4950483;28;20050;-83
2021/08/07 05:55:11;;;;;;;1.50;0.88;;;20.90;91.70;;;;;;4966448;28;20077;-84
2021/08/07 05:57:37;;;;;;;1.42;0.90;;;21.00;91.80;;;;;;4949654;28;20504;-83
2021/08/07 06:00:04;;;;;;;6.25;1.67;;;21.20;91.40;;;;;;4966420;28;20628;-83
2021/08/07 06:02:34;;;;;;;1.60;1.00;;;21.30;90.50;;;;;;4950729;28;20106;-83
2021/08/07 06:04:59;;;;;;;1.80;0.90;;;22.00;88.90;;;;;;4950429;28;20088;-80
2021/08/07 06:07:25;;;;;;;3.08;0.95;;;22.90;85.50;;;;;;4967077;28;20488;-81
2021/08/07 06:09:51;;;;;;;2.40;1.13;;;23.60;82.20;;;;;;4966111;28;20408;-82
2021/08/07 06:12:17;;;;;;;2.20;1.00;;;24.10;79.30;;;;;;4967427;28;20453;-81
2021/08/07 06:14:43;;;;;;;3.67;0.88;;;25.10;75.20;;;;;;4950203;28;20694;-80
2021/08/07 06:17:08;;;;;;;2.20;1.15;;;26.00;69.10;;;;;;4967282;28;20070;-80
2021/08/07 06:19:35;;;;;;;2.22;0.80;;;27.00;65.60;;;;;;4966221;28;20042;-79
2021/08/07 06:22:01;;;;;;;1.50;0.80;;;28.00;61.70;;;;;;4950055;28;20490;-80
2021/08/07 06:24:27;;;;;;;4.53;1.23;;;28.80;58.50;;;;;;4965695;28;20050;-80
2021/08/07 06:26:52;;;;;;;3.40;1.38;;;29.60;55.60;;;;;;4966599;28;20031;-82
2021/08/07 06:29:18;;;;;;;4.55;1.25;;;30.10;53.40;;;;;;4966621;28;20088;-81
2021/08/07 06:31:44;;;;;;;2.35;1.08;;;30.70;51.40;;;;;;4967568;28;20494;-82
2021/08/07 06:34:09;;;;;;;1.90;0.75;;;31.30;49.50;;;;;;4949660;28;20085;-83
2021/08/07 06:36:35;;;;;;;2.22;1.00;;;31.70;48.70;;;;;;4949947;28;20078;-83
2021/08/07 06:39:01;;;;;;;2.45;1.00;;;31.80;47.30;;;;;;4967304;28;20122;-82
2021/08/07 06:41:27;;;;;;;3.40;0.95;;;32.20;46.60;;;;;;4949553;28;20146;-82
2021/08/07 06:43:52;;;;;;;3.17;0.82;;;32.50;45.30;;;;;;4968025;28;20065;-82
2021/08/07 06:46:18;;;;;;;2.58;0.90;;;32.80;44.80;;;;;;4971078;28;20558;-83
2021/08/07 06:48:44;;;;;;;1.40;0.85;;;32.70;43.60;;;;;;4969360;28;20026;-81
2021/08/07 06:51:09;;;;;;;1.60;0.80;;;32.70;44.00;;;;;;4970149;28;20039;-81
2021/08/07 06:53:35;;;;;;;2.50;0.90;;;33.10;43.20;;;;;;4971059;28;20571;-83
2021/08/07 06:56:00;;;;;;;1.98;1.10;;;33.10;43.00;;;;;;4970217;28;20035;-82
2021/08/07 06:58:26;;;;;;;2.13;1.00;;;33.20;43.00;;;;;;4970964;28;20031;-82
2021/08/07 07:00:52;;;;;;;6.85;0.90;;;33.10;43.10;;;;;;4953579;28;20030;-84
2021/08/07 07:03:17;;;;;;;8.00;1.00;;;33.00;42.50;;;;;;4970572;28;20030;-82
2021/08/07 07:05:43;;;;;;;7.63;1.05;;;32.80;44.50;;;;;;4970126;28;20031;-83
2021/08/07 07:08:09;;;;;;;1.83;0.80;;;33.30;42.30;;;;;;4968636;28;20140;-83
2021/08/07 07:10:35;;;;;;;6.65;1.00;;;33.00;42.70;;;;;;4970576;28;20035;-82
2021/08/07 07:13:00;;;;;;;5.45;1.10;;;33.10;42.90;;;;;;4970046;28;20022;-82
2021/08/07 07:15:27;;;;;;;8.05;1.27;;;33.40;42.70;;;;;;4970312;28;20094;-82
2021/08/07 07:17:53;;;;;;;2.55;0.88;;;33.50;42.90;;;;;;4970301;28;20042;-82
2021/08/07 07:20:20;;;;;;;1.65;0.82;;;33.80;41.90;;;;;;4969081;28;20033;-82
2021/08/07 07:22:47;;;;;;;1.73;0.80;;;33.80;41.30;;;;;;4969982;28;20026;-82
2021/08/07 07:25:14;;;;;;;2.63;0.65;;;33.80;40.70;;;;;;4970048;28;20038;-83
2021/08/07 07:27:40;;;;;;;3.85;0.88;;;34.00;39.30;;;;;;4952891;28;20515;-82
2021/08/07 07:30:07;;;;;;;2.30;0.80;;;34.00;39.30;;;;;;4952657;28;20424;-82
2021/08/07 07:32:33;;;;;;;1.73;0.80;;;34.10;39.70;;;;;;4952347;28;20023;-83
2021/08/07 07:34:58;;;;;;;3.83;0.70;;;34.10;38.90;;;;;;4970298;28;20088;-82
2021/08/07 07:37:25;;;;;;;1.67;0.73;;;34.00;39.10;;;;;;4951621;28;20030;-82
2021/08/07 07:39:51;;;;;;;1.77;0.88;;;34.00;39.50;;;;;;4970272;28;20034;-83
2021/08/07 07:42:17;;;;;;;2.22;0.93;;;34.20;39.30;;;;;;4968617;28;20042;-83
2021/08/07 07:44:42;;;;;;;1.30;0.70;;;34.40;40.00;;;;;;4970085;28;20027;-83
2021/08/07 07:47:08;;;;;;;2.25;0.77;;;34.50;38.60;;;;;;4951995;28;20031;-82
2021/08/07 07:49:34;;;;;;;1.13;0.80;;;34.40;38.40;;;;;;4952720;28;20042;-82
2021/08/07 07:51:59;;;;;;;1.50;0.70;;;34.30;38.10;;;;;;4969484;28;20390;-82
2021/08/07 07:54:25;;;;;;;3.42;0.73;;;34.50;38.10;;;;;;4969480;28;20065;-83
2021/08/07 07:56:51;;;;;;;3.13;0.63;;;34.70;37.70;;;;;;4969186;28;20508;-82
2021/08/07 07:59:17;;;;;;;2.78;0.70;;;34.70;38.20;;;;;;4969031;28;20468;-82
2021/08/07 08:01:42;;;;;;;2.40;0.70;;;34.90;38.30;;;;;;4952502;28;20488;-82
2021/08/07 08:04:08;;;;;;;2.28;0.75;;;35.10;37.70;;;;;;4968137;28;20041;-82
2021/08/07 08:06:34;;;;;;;1.50;0.70;;;35.00;37.70;;;;;;4969314;28;20058;-81
2021/08/07 08:08:59;;;;;;;1.15;0.73;;;35.10;38.30;;;;;;4967408;28;20415;-82
2021/08/07 08:11:25;;;;;;;3.90;1.33;;;35.00;38.10;;;;;;4969322;28;20515;-82
2021/08/07 08:13:51;;;;;;;2.47;0.88;;;35.20;37.40;;;;;;4951964;28;20031;-82
2021/08/07 08:16:17;;;;;;;1.95;1.13;;;35.30;37.10;;;;;;4967915;28;20039;-79
2021/08/07 08:18:42;;;;;;;3.25;0.95;;;35.40;37.30;;;;;;4969221;28;20049;-80
2021/08/07 08:21:08;;;;;;;7.15;1.10;;;35.20;36.90;;;;;;4968846;28;20109;-79
2021/08/07 08:23:34;;;;;;;6.53;1.30;;;35.00;37.20;;;;;;4951311;28;20558;-80
2021/08/07 08:25:59;;;;;;;1.75;0.70;;;35.00;37.10;;;;;;4951218;28;20039;-82
2021/08/07 08:28:25;;;;;;;1.67;0.75;;;35.30;37.20;;;;;;4967812;28;20597;-81
2021/08/07 08:30:51;;;;;;;1.60;0.90;;;35.50;36.00;;;;;;4951750;28;20779;-80
2021/08/07 08:33:16;;;;;;;3.35;0.77;;;35.20;36.40;;;;;;4968588;28;20038;-80
2021/08/07 08:35:42;;;;;;;2.40;0.85;;;35.40;36.30;;;;;;4951462;28;20031;-80
2021/08/07 08:38:08;;;;;;;2.22;0.88;;;35.20;36.80;;;;;;4950843;28;20538;-79
2021/08/07 08:40:34;;;;;;;2.08;0.68;;;34.80;36.40;;;;;;4951727;28;20154;-80
2021/08/07 08:43:00;;;;;;;2.85;0.70;;;34.80;35.60;;;;;;4951497;28;20035;-79
2021/08/07 08:45:26;;;;;;;0.90;0.60;;;34.70;36.60;;;;;;4950946;28;20041;-80
2021/08/07 08:47:52;;;;;;;1.75;0.65;;;34.70;36.00;;;;;;4951579;28;20027;-80
2021/08/07 08:50:22;;;;;;;1.23;0.75;;;34.70;35.70;;;;;;4951297;28;20035;-81
2021/08/07 08:52:51;;;;;;;3.13;0.60;;;35.00;36.00;;;;;;4950818;28;20061;-79
2021/08/07 08:55:17;;;;;;;2.35;0.60;;;35.20;35.50;;;;;;4951120;28;20134;-80
2021/08/07 08:57:43;;;;;;;2.65;0.60;;;35.40;35.60;;;;;;4950759;28;20125;-81
2021/08/07 09:00:10;;;;;;;1.42;0.73;;;35.00;34.60;;;;;;4968077;28;20033;-80
2021/08/07 09:02:37;;;;;;;1.77;0.60;;;34.30;35.00;;;;;;4950652;28;20117;-80
2021/08/07 09:05:08;;;;;;;1.88;0.70;;;33.60;36.20;;;;;;4950767;28;20034;-80
2021/08/07 09:07:34;;;;;;;1.85;0.60;;;33.00;37.30;;;;;;4965921;28;20117;-79
2021/08/07 09:09:59;;;;;;;1.27;0.77;;;32.70;38.30;;;;;;4967875;28;20118;-81
2021/08/07 09:12:47;;;;;;;3.10;0.90;;;32.50;39.00;;;;;;4951016;28;20328;-80
2021/08/07 09:15:30;;;;;;;3.58;0.90;;;31.90;40.60;;;;;;4968472;28;20027;-80
2021/08/07 09:18:15;;;;;;;9.73;0.82;;;31.70;40.70;;;;;;4950806;28;20117;-79
2021/08/07 09:20:43;;;;;;;3.63;1.08;;;31.40;41.10;;;;;;4967849;28;20037;-80
2021/08/07 09:23:08;;;;;;;1.42;0.90;;;31.20;41.30;;;;;;4950124;28;20113;-80
2021/08/07 09:25:43;;;;;;;8.27;1.35;;;30.80;42.20;;;;;;4950799;28;20074;-79
2021/08/07 09:28:09;;;;;;;12.55;1.83;;;30.70;41.90;;;;;;4950779;28;20034;-80
2021/08/07 09:30:38;;;;;;;1.77;0.50;;;30.50;42.30;;;;;;4966689;28;20054;-80
2021/08/07 09:33:10;;;;;;;1.75;1.00;;;30.50;43.00;;;;;;4967935;28;20031;-80
2021/08/07 09:35:37;;;;;;;1.67;0.80;;;30.60;43.40;;;;;;4950263;28;20031;-80
2021/08/07 09:38:14;;;;;;;4.35;0.90;;;31.00;42.40;;;;;;4966210;28;20070;-80
2021/08/07 09:40:47;;;;;;;1.77;0.77;;;31.20;41.80;;;;;;4967838;28;20038;-80
2021/08/07 09:43:15;;;;;;;8.18;0.80;;;31.70;40.60;;;;;;4949952;28;20033;-79
2021/08/07 09:45:41;;;;;;;2.53;0.95;;;31.80;40.10;;;;;;4950277;28;20487;-80
2021/08/07 09:48:16;;;;;;;2.25;0.60;;;31.90;41.60;;;;;;4969040;28;20102;-80
2021/08/07 09:50:42;;;;;;;4.03;0.98;;;31.80;41.50;;;;;;4949776;28;20126;-79
2021/08/07 09:53:24;;;;;;;1.75;0.80;;;31.60;41.60;;;;;;4966144;28;20137;-78
2021/08/07 09:56:04;;;;;;;1.75;0.80;;;31.40;41.60;;;;;;4966325;28;20443;-79
2021/08/07 09:58:29;;;;;;;3.10;0.80;;;31.00;41.80;;;;;;4967582;28;20093;-79
2021/08/07 10:00:56;;;;;;;3.67;0.93;;;30.60;42.70;;;;;;4950053;28;20126;-79
2021/08/07 10:03:24;;;;;;;4.07;0.90;;;30.30;43.70;;;;;;4967206;28;20049;-79
2021/08/07 10:05:50;;;;;;;2.72;0.80;;;30.20;43.80;;;;;;4966978;28;20031;-79
2021/08/07 10:08:16;;;;;;;3.33;0.80;;;30.00;44.10;;;;;;4950109;28;20042;-80
2021/08/07 10:10:44;;;;;;;2.38;0.90;;;30.00;44.00;;;;;;4966230;28;20035;-79
2021/08/07 10:13:11;;;;;;;3.30;0.90;;;30.00;44.00;;;;;;4965628;28;20392;-79
2021/08/07 10:15:39;;;;;;;2.45;0.70;;;29.90;44.80;;;;;;4967716;28;20030;-79
2021/08/07 10:18:06;;;;;;;3.08;1.10;;;30.00;45.50;;;;;;4950196;28;20027;-80
2021/08/07 10:20:33;;;;;;;2.30;0.93;;;29.90;45.40;;;;;;4971007;28;20515;-79
2021/08/07 10:22:59;;;;;;;3.10;0.90;;;30.00;45.80;;;;;;4971493;28;20258;-80
2021/08/07 10:25:25;;;;;;;2.78;0.80;;;30.20;45.80;;;;;;4970714;28;20034;-79
2021/08/07 10:27:58;;;;;;;3.38;0.70;;;30.30;45.20;;;;;;4971381;28;20122;-79
2021/08/07 10:30:25;;;;;;;1.58;0.80;;;30.30;45.70;;;;;;4970829;28;20157;-80
2021/08/07 10:32:56;;;;;;;1.70;0.80;;;30.20;45.60;;;;;;4970934;28;20034;-80
2021/08/07 10:35:27;;;;;;;1.73;0.80;;;30.10;46.30;;;;;;4953183;28;20515;-80
2021/08/07 10:37:59;;;;;;;3.85;0.80;;;30.20;46.50;;;;;;4952948;28;20034;-79
2021/08/07 10:40:27;;;;;;;1.90;0.68;;;30.20;45.90;;;;;;4970705;28;20181;-79
2021/08/07 10:42:54;;;;;;;2.22;0.82;;;30.20;46.60;;;;;;4969775;28;20101;-79
2021/08/07 10:45:21;;;;;;;5.07;0.63;;;30.00;45.90;;;;;;4953292;28;20192;-79
2021/08/07 10:47:49;;;;;;;3.95;0.63;;;30.00;45.40;;;;;;4970988;28;20034;-79
2021/08/07 10:50:28;;;;;;;1.05;0.80;;;30.10;45.80;;;;;;4953027;28;20027;-80
2021/08/07 10:52:56;;;;;;;2.38;0.90;;;30.00;46.00;;;;;;4969536;28;20030;-80
2021/08/07 10:55:42;;;;;;;1.50;0.77;;;29.90;45.80;;;;;;4952859;28;20031;-80
2021/08/07 10:58:33;;;;;;;0.98;0.68;;;29.80;45.80;;;;;;4970424;28;20041;-80
2021/08/07 11:01:26;;;;;;;4.72;0.80;;;29.90;45.90;;;;;;4969062;28;20039;-79
2021/08/07 11:04:01;;;;;;;5.78;0.75;;;30.00;45.10;;;;;;4953072;28;20372;-79
2021/08/07 11:06:38;;;;;;;1.63;0.80;;;29.90;45.90;;;;;;4970143;28;20038;-80
2021/08/07 11:09:30;;;;;;;2.00;0.77;;;30.10;45.60;;;;;;4953286;28;20066;-78
2021/08/07 11:12:11;;;;;;;2.40;1.02;;;30.20;45.30;;;;;;4953266;28;20027;-78
2021/08/07 11:14:39;;;;;;;1.92;0.73;;;30.10;45.20;;;;;;4970614;28;20031;-77
2021/08/07 11:17:05;;;;;;;2.22;0.77;;;30.00;46.00;;;;;;4970140;28;20042;-78
2021/08/07 11:19:48;;;;;;;1.83;0.70;;;30.00;45.60;;;;;;4952568;28;20042;-79
2021/08/07 11:22:14;;;;;;;4.28;1.20;;;30.10;45.90;;;;;;4970327;28;20022;-79
2021/08/07 11:24:56;;;;;;;4.57;0.93;;;30.00;46.00;;;;;;4970298;28;20142;-80
2021/08/07 11:27:45;;;;;;;1.70;0.90;;;30.10;45.80;;;;;;4969854;28;20019;-78
2021/08/07 11:30:36;;;;;;;1.65;0.88;;;30.20;44.40;;;;;;4951529;28;20051;-80
2021/08/07 11:33:18;;;;;;;1.88;0.80;;;30.30;44.80;;;;;;4968921;28;20114;-80
2021/08/07 11:35:49;;;;;;;1.38;0.90;;;30.30;44.50;;;;;;4952854;28;20077;-79
2021/08/07 11:38:25;;;;;;;3.03;0.93;;;30.00;45.20;;;;;;4969655;28;20538;-79
2021/08/07 11:41:06;;;;;;;1.95;0.50;;;29.70;45.20;;;;;;4952712;28;20412;-79
2021/08/07 11:43:43;;;;;;;2.58;1.08;;;29.70;45.50;;;;;;4952759;28;20027;-80
2021/08/07 11:46:11;;;;;;;1.85;0.88;;;29.60;45.00;;;;;;4952563;28;20034;-80
2021/08/07 11:48:41;;;;;;;7.88;1.50;;;29.60;46.50;;;;;;4968028;28;20042;-80
2021/08/07 11:51:28;;;;;;;2.47;0.90;;;29.50;45.80;;;;;;4952375;28;20652;-80
2021/08/07 11:53:53;;;;;;;;;;;29.50;46.60;;;;;;4970607;28;20031;-80
2021/08/07 11:56:24;;;;;;;1.73;1.20;;;29.60;46.00;;;;;;4969250;28;20725;-78
2021/08/07 11:58:51;;;;;;;3.30;1.00;;;29.50;45.20;;;;;;4968013;28;20078;-78
2021/08/07 12:01:18;;;;;;;2.63;1.13;;;29.30;45.10;;;;;;4952539;28;20031;-80
2021/08/07 12:03:52;;;;;;;3.03;1.00;;;29.30;45.80;;;;;;4951616;28;20035;-79
2021/08/07 12:06:38;;;;;;;10.75;1.00;;;29.50;45.40;;;;;;4951982;28;20491;-79
2021/08/07 12:09:15;;;;;;;7.03;1.88;;;29.60;45.40;;;;;;4969503;28;20031;-80
2021/08/07 12:11:42;;;;;;;2.08;1.20;;;29.80;45.30;;;;;;4952094;28;20606;-80
2021/08/07 12:14:08;;;;;;;5.25;0.80;;;30.00;45.10;;;;;;4969326;28;20054;-79
2021/08/07 12:16:35;;;;;;;3.47;0.52;;;29.90;44.40;;;;;;4969414;28;20070;-79
2021/08/07 12:19:22;;;;;;;2.17;0.90;;;30.00;44.30;;;;;;4951775;28;20040;-80
2021/08/07 12:21:49;;;;;;;8.80;0.93;;;30.20;45.50;;;;;;4969157;28;20046;-79
2021/08/07 12:24:20;;;;;;;1.80;1.02;;;30.40;44.90;;;;;;4951781;28;20065;-80
2021/08/07 12:26:51;;;;;;;2.05;0.80;;;30.50;44.50;;;;;;4969335;28;20023;-80
2021/08/07 12:29:37;;;;;;;1.65;0.60;;;30.50;44.40;;;;;;4967465;28;20061;-79
2021/08/07 12:32:04;;;;;;;2.67;0.70;;;30.50;43.90;;;;;;4951941;28;20056;-79
2021/08/07 12:34:35;;;;;;;2.65;0.98;;;30.60;43.40;;;;;;4951352;28;20035;-80
2021/08/07 12:37:04;;;;;;;1.10;0.70;;;30.60;43.70;;;;;;4951665;28;20594;-79
2021/08/07 12:39:44;;;;;;;5.15;0.77;;;30.50;43.40;;;;;;4951153;28;20038;-80
2021/08/07 12:42:13;;;;;;;3.85;0.60;;;30.60;43.60;;;;;;4968863;28;20035;-79
2021/08/07 12:44:39;;;;;;;2.13;1.02;;;30.60;42.80;;;;;;4968837;28;20285;-79
2021/08/07 12:47:05;;;;;;;3.38;0.70;;;30.60;42.90;;;;;;4968975;28;20214;-80
2021/08/07 12:49:44;;;;;;;1.00;0.60;;;30.30;42.80;;;;;;4968483;28;20038;-79
2021/08/07 12:52:18;;;;;;;3.55;1.00;;;30.20;42.70;;;;;;4968630;28;20415;-80
2021/08/07 12:55:02;;;;;;;2.20;0.60;;;30.10;43.50;;;;;;4968146;28;20033;-80
2021/08/07 12:57:28;;;;;;;1.20;0.75;;;30.20;42.90;;;;;;4950600;28;20035;-79
2021/08/07 12:59:55;;;;;;;5.72;0.90;;;30.20;42.60;;;;;;4968358;28;20084;-79
2021/08/07 13:02:22;;;;;;;1.73;0.80;;;30.10;42.80;;;;;;4966798;28;20030;-80
2021/08/07 13:04:50;;;;;;;2.78;1.00;;;30.10;42.80;;;;;;4968275;28;20034;-80
2021/08/07 13:07:26;;;;;;;1.80;0.90;;;30.10;43.40;;;;;;4950842;28;20498;-79
2021/08/07 13:09:51;;;;;;;1.98;0.70;;;30.10;43.80;;;;;;4967659;28;20476;-80
2021/08/07 13:12:20;;;;;;;1.98;0.80;;;30.40;43.60;;;;;;4968012;28;20034;-78
2021/08/07 13:14:52;;;;;;;8.27;0.90;;;30.30;43.10;;;;;;4951227;28;20027;-79
2021/08/07 13:17:34;;;;;;;1.20;0.80;;;30.30;42.50;;;;;;4967752;28;20037;-80
2021/08/07 13:19:59;;;;;;;1.90;0.75;;;30.30;42.60;;;;;;4950833;28;20524;-80
2021/08/07 13:22:25;;;;;;;7.07;0.88;;;30.40;42.30;;;;;;4967866;28;20121;-80
2021/08/07 13:24:54;;;;;;;2.42;0.68;;;30.40;42.10;;;;;;4966681;28;20142;-81
2021/08/07 13:27:31;;;;;;;3.17;0.80;;;30.30;42.40;;;;;;4968235;28;20030;-80
2021/08/07 13:29:59;;;;;;;0.88;0.60;;;30.30;42.50;;;;;;4950067;28;20559;-79
2021/08/07 13:32:30;;;;;;;0.85;0.60;;;30.20;41.60;;;;;;4950392;28;20520;-80
2021/08/07 13:34:58;;;;;;;1.33;0.60;;;30.00;42.10;;;;;;4950000;28;20069;-79
2021/08/07 13:37:24;;;;;;;1.17;0.70;;;30.00;42.10;;;;;;4966577;28;20031;-80
2021/08/07 13:39:51;;;;;;;4.85;0.80;;;30.00;42.10;;;;;;4950543;28;20042;-79
2021/08/07 13:42:18;;;;;;;2.15;0.60;;;30.00;41.80;;;;;;4967936;28;20031;-80
2021/08/07 13:44:44;;;;;;;1.35;0.50;;;30.10;42.20;;;;;;4950195;28;20058;-78
2021/08/07 13:47:10;;;;;;;2.38;0.60;;;30.10;42.20;;;;;;4950278;28;20632;-80
2021/08/07 13:49:35;;;;;;;1.10;0.60;;;30.20;42.00;;;;;;4965840;28;20062;-79
2021/08/07 13:52:01;;;;;;;5.15;0.82;;;30.20;41.50;;;;;;4967644;28;20124;-80
2021/08/07 13:54:27;;;;;;;1.00;0.75;;;30.30;41.70;;;;;;4967386;28;20031;-80
2021/08/07 13:56:52;;;;;;;1.90;0.90;;;30.30;41.80;;;;;;4950521;28;20085;-79
2021/08/07 13:59:18;;;;;;;2.10;0.65;;;30.30;40.90;;;;;;4967055;28;20515;-79
2021/08/07 14:01:44;;;;;;;1.23;0.60;;;30.30;41.20;;;;;;4966461;28;20696;-79
2021/08/07 14:04:09;;;;;;;1.58;0.90;;;30.40;40.70;;;;;;4949758;28;20045;-79
2021/08/07 14:06:35;;;;;;;2.00;0.60;;;30.30;39.50;;;;;;4950112;28;20635;-80
2021/08/07 14:09:00;;;;;;;4.10;0.60;;;30.10;40.10;;;;;;4967434;28;20042;-79
2021/08/07 14:11:26;;;;;;;2.15;0.90;;;30.20;40.30;;;;;;4967159;28;20033;-79
2021/08/07 14:13:52;;;;;;;2.65;0.68;;;30.20;40.60;;;;;;4967601;28;20039;-79
2021/08/07 14:16:18;;;;;;;0.95;0.50;;;30.00;40.30;;;;;;4967072;28;20034;-80
2021/08/07 14:18:44;;;;;;;3.13;0.80;;;30.00;41.10;;;;;;4949790;28;20053;-78
2021/08/07 14:21:10;;;;;;;1.17;0.60;;;30.00;41.30;;;;;;4967358;28;20492;-79
2021/08/07 14:23:36;;;;;;;1.58;0.70;;;30.10;41.90;;;;;;4950373;28;20026;-79
2021/08/07 14:26:03;;;;;;;1.35;0.80;;;30.10;41.70;;;;;;4965975;28;20033;-79
2021/08/07 14:28:28;;;;;;;2.72;0.60;;;30.20;41.60;;;;;;4949506;28;20030;-80
2021/08/07 14:30:54;;;;;;;1.30;0.60;;;30.30;41.50;;;;;;4949805;28;20054;-79
2021/08/07 14:33:20;;;;;;;1.20;0.50;;;30.30;41.00;;;;;;4949188;28;20038;-79
2021/08/07 14:35:45;;;;;;;1.67;0.68;;;30.30;40.80;;;;;;4966938;28;20045;-81
2021/08/07 14:38:11;;;;;;;3.70;0.90;;;30.20;40.40;;;;;;4965910;28;20045;-80
2021/08/07 14:40:36;;;;;;;1.27;0.70;;;30.20;41.00;;;;;;4965677;28;20121;-79
2021/08/07 14:43:02;;;;;;;0.95;0.50;;;30.10;41.70;;;;;;4967055;28;20027;-79
2021/08/07 14:45:28;;;;;;;2.08;0.75;;;30.00;41.00;;;;;;4949828;28;20093;-78
2021/08/07 14:47:53;;;;;;;1.25;0.70;;;29.80;40.90;;;;;;4965564;28;20038;-80
2021/08/07 14:50:19;;;;;;;0.80;0.50;;;29.80;41.40;;;;;;4965365;28;20609;-80
2021/08/07 14:52:45;;;;;;;1.73;0.75;;;29.80;41.60;;;;;;4949961;28;20118;-80
2021/08/07 14:55:10;;;;;;;2.13;0.75;;;29.70;42.30;;;;;;4966014;28;20035;-79
2021/08/07 14:57:38;;;;;;;0.90;0.60;;;29.70;41.60;;;;;;4966972;28;20031;-80
2021/08/07 15:00:08;;;;;;;1.58;0.60;;;29.70;42.00;;;;;;4950046;28;20067;-78
2021/08/07 15:02:33;;;;;;;1.42;0.52;;;29.90;42.60;;;;;;4966848;28;20081;-80
2021/08/07 15:04:59;;;;;;;3.50;0.70;;;30.00;42.40;;;;;;4966651;28;20043;-80
2021/08/07 15:07:25;;;;;;;4.40;0.52;;;30.10;42.20;;;;;;4970359;28;20031;-81
2021/08/07 15:09:50;;;;;;;5.72;0.60;;;30.10;42.00;;;;;;4970320;28;20034;-79
2021/08/07 15:12:16;;;;;;;1.20;0.57;;;30.10;41.10;;;;;;4969406;28;20034;-80
2021/08/07 15:14:42;;;;;;;2.10;0.65;;;30.10;41.30;;;;;;4970244;28;20062;-79
2021/08/07 15:17:07;;;;;;;1.00;0.57;;;29.90;40.50;;;;;;4968927;28;20038;-79
2021/08/07 15:19:33;;;;;;;1.05;0.57;;;29.70;40.60;;;;;;4970158;28;20038;-80
2021/08/07 15:21:59;;;;;;;1.05;0.65;;;29.50;41.20;;;;;;4953041;28;20027;-79
2021/08/07 15:24:25;;;;;;;1.10;0.70;;;29.50;41.50;;;;;;4970084;28;20045;-80
2021/08/07 15:26:51;;;;;;;2.03;0.77;;;29.50;41.50;;;;;;4970194;28;20034;-79
2021/08/07 15:29:17;;;;;;;2.28;0.70;;;29.60;41.30;;;;;;4969456;28;20050;-79
2021/08/07 15:31:43;;;;;;;5.85;0.80;;;29.70;41.40;;;;;;4969947;28;20045;-80
2021/08/07 15:34:10;;;;;;;2.78;0.98;;;29.80;41.10;;;;;;4968875;28;20093;-77
2021/08/07 15:36:36;;;;;;;3.75;0.70;;;30.00;40.50;;;;;;4970108;28;20049;-80
2021/08/07 15:39:03;;;;;;;0.98;0.60;;;30.00;40.40;;;;;;4952631;28;20035;-79
2021/08/07 15:41:30;;;;;;;6.57;0.60;;;30.10;40.20;;;;;;4952754;28;20567;-80
2021/08/07 15:43:56;;;;;;;2.30;0.70;;;30.20;39.60;;;;;;4952259;28;20149;-79
2021/08/07 15:46:22;;;;;;;3.53;0.65;;;30.10;39.90;;;;;;4952405;28;20027;-77
2021/08/07 15:48:48;;;;;;;5.15;0.70;;;30.00;40.60;;;;;;4952663;28;20035;-79
2021/08/07 15:51:14;;;;;;;4.82;0.80;;;30.00;40.60;;;;;;4969392;28;20022;-77
2021/08/07 15:53:42;;;;;;;6.70;0.80;;;29.90;40.20;;;;;;4952484;28;20307;-79
2021/08/07 15:56:11;;;;;;;5.70;0.80;;;29.90;40.70;;;;;;4969746;28;20058;-80
2021/08/07 15:58:37;;;;;;;4.88;0.90;;;29.80;40.60;;;;;;4969286;28;20035;-80
2021/08/07 16:01:03;;;;;;;1.77;0.70;;;29.70;40.80;;;;;;4951944;28;20069;-81
2021/08/07 16:03:29;;;;;;;2.10;0.52;;;29.70;40.30;;;;;;4951858;28;20693;-80
2021/08/07 16:05:54;;;;;;;6.22;0.63;;;29.50;40.60;;;;;;4968271;28;20026;-80
2021/08/07 16:08:20;;;;;;;3.05;0.88;;;29.40;41.20;;;;;;4952253;28;20410;-81
2021/08/07 16:10:46;;;;;;;1.70;0.60;;;29.30;41.90;;;;;;4969469;28;20035;-80
2021/08/07 16:13:11;;;;;;;3.42;0.73;;;29.30;42.60;;;;;;4951552;28;20543;-80
2021/08/07 16:15:37;;;;;;;1.58;0.82;;;29.30;41.20;;;;;;4969118;28;20062;-79
2021/08/07 16:18:03;;;;;;;1.55;0.68;;;29.20;41.50;;;;;;4968885;28;20121;-80
2021/08/07 16:20:29;;;;;;;2.05;0.65;;;29.10;42.00;;;;;;4969112;28;20105;-80